createdAt,value
2019-05-02T00:01:36.125Z,21.77
2019-05-02T00:04:05.332Z,22.83
2019-05-02T00:06:38.015Z,22.40
2019-05-02T00:09:09.359Z,22.23
2019-05-02T00:11:38.471Z,23.30
2019-05-02T00:14:07.469Z,23.80
2019-05-02T00:16:36.758Z,22.23
2019-05-02T00:19:09.080Z,22.93
2019-05-02T00:21:38.228Z,23.17
2019-05-02T00:24:07.273Z,21.10
2019-05-02T00:26:35.736Z,22.27
2019-05-02T00:29:05.082Z,22.13
2019-05-02T00:31:34.108Z,22.60
2019-05-02T00:34:02.571Z,22.10
2019-05-02T00:36:31.051Z,23.07
2019-05-02T00:38:59.618Z,21.70
2019-05-02T00:41:28.340Z,22.73
2019-05-02T00:43:57.190Z,22.90
2019-05-02T00:46:25.680Z,21.47
2019-05-02T00:48:59.824Z,22.07
2019-05-02T00:51:26.833Z,22.33
2019-05-02T00:53:56.346Z,20.10
2019-05-02T00:56:24.820Z,20.50
2019-05-02T00:58:53.305Z,19.23
2019-05-02T01:01:30.978Z,20.77
2019-05-02T01:04:01.333Z,19.40
2019-05-02T01:06:29.870Z,20.87
2019-05-02T01:08:58.830Z,22.93
2019-05-02T01:11:28.247Z,21.47
2019-05-02T01:13:57.718Z,22.87
2019-05-02T01:16:26.731Z,23.73
2019-05-02T01:18:55.187Z,23.37
2019-05-02T01:21:23.689Z,24.13
2019-05-02T01:23:52.480Z,23.07
2019-05-02T01:26:24.131Z,22.73
2019-05-02T01:28:57.045Z,23.47
2019-05-02T01:31:39.228Z,23.50
2019-05-02T01:34:13.057Z,22.60
2019-05-02T01:36:59.733Z,23.57
2019-05-02T01:39:28.221Z,23.47
2019-05-02T01:42:00.057Z,24.30
2019-05-02T01:44:31.201Z,25.50
2019-05-02T01:46:58.784Z,24.13
2019-05-02T01:49:27.344Z,24.20
2019-05-02T01:51:55.812Z,23.40
2019-05-02T01:54:24.298Z,25.07
2019-05-02T01:56:52.795Z,24.17
2019-05-02T01:59:21.256Z,24.83
2019-05-02T02:01:53.089Z,23.70
2019-05-02T02:04:21.024Z,23.50
2019-05-02T02:06:50.251Z,23.57
2019-05-02T02:09:19.101Z,23.13
2019-05-02T02:11:47.639Z,22.23
2019-05-02T02:14:18.553Z,21.77
2019-05-02T02:16:46.590Z,24.07
2019-05-02T02:19:16.691Z,22.37
2019-05-02T02:22:04.626Z,23.40
2019-05-02T02:24:38.454Z,23.43
2019-05-02T02:27:07.421Z,23.17
2019-05-02T02:29:39.054Z,22.43
2019-05-02T02:32:06.163Z,21.50
2019-05-02T02:34:34.690Z,22.83
2019-05-02T02:37:05.321Z,23.13
2019-05-02T02:39:33.372Z,23.90
2019-05-02T02:42:02.098Z,23.33
2019-05-02T02:44:33.856Z,23.33
2019-05-02T02:47:02.537Z,22.03
2019-05-02T02:49:31.028Z,23.97
2019-05-02T02:52:04.858Z,22.13
2019-05-02T02:54:29.708Z,23.40
2019-05-02T02:56:58.185Z,22.87
2019-05-02T02:59:28.092Z,24.27
2019-05-02T03:02:08.994Z,24.63
2019-05-02T03:04:27.124Z,23.97
2019-05-02T03:06:55.982Z,23.80
2019-05-02T03:09:26.801Z,22.07
2019-05-02T03:12:12.730Z,22.00
2019-05-02T03:14:47.078Z,20.40
2019-05-02T03:17:13.177Z,23.70
2019-05-02T03:19:41.695Z,23.37
2019-05-02T03:22:10.251Z,22.97
2019-05-02T03:24:43.886Z,21.85
2019-05-02T03:27:09.203Z,23.40
2019-05-02T03:29:44.363Z,22.33
2019-05-02T03:32:30.505Z,21.17
2019-05-02T03:34:52.215Z,22.77
2019-05-02T03:37:13.532Z,23.80
2019-05-02T03:39:41.434Z,22.63
2019-05-02T03:42:09.982Z,22.97
2019-05-02T03:44:39.696Z,22.33
2019-05-02T03:47:08.429Z,21.73
2019-05-02T03:49:40.807Z,21.90
2019-05-02T03:52:07.206Z,22.47
2019-05-02T03:54:49.067Z,22.50
2019-05-02T03:57:06.310Z,23.03
2019-05-02T03:59:38.904Z,24.17
2019-05-02T04:02:05.227Z,21.93
2019-05-02T04:04:34.627Z,23.23
2019-05-02T04:07:03.813Z,22.20
2019-05-02T04:09:38.743Z,21.87
2019-05-02T04:12:11.565Z,22.10
2019-05-02T04:14:38.653Z,22.67
2019-05-02T04:17:09.493Z,22.97
2019-05-02T04:19:38.085Z,22.07
2019-05-02T04:22:08.417Z,20.47
2019-05-02T04:24:37.111Z,22.00
2019-05-02T04:27:05.740Z,21.40
2019-05-02T04:29:34.209Z,22.00
2019-05-02T04:32:04.530Z,21.63
2019-05-02T04:34:33.139Z,21.87
2019-05-02T04:37:04.002Z,20.50
2019-05-02T04:39:31.793Z,22.30
2019-05-02T04:42:05.375Z,20.03
2019-05-02T04:44:44.180Z,21.20
2019-05-02T04:47:11.174Z,21.53
2019-05-02T04:49:35.551Z,21.33
2019-05-02T04:52:07.073Z,22.00
2019-05-02T04:54:32.648Z,21.43
2019-05-02T04:57:02.378Z,21.97
2019-05-02T04:59:33.357Z,22.80
2019-05-02T05:02:01.886Z,21.10
2019-05-02T05:04:33.310Z,22.07
2019-05-02T05:07:01.274Z,23.10
2019-05-02T05:09:30.487Z,22.40
2019-05-02T05:12:02.410Z,22.57
2019-05-02T05:14:31.493Z,23.37
2019-05-02T05:16:59.380Z,23.93
2019-05-02T05:19:32.468Z,23.53
2019-05-02T05:22:04.513Z,22.77
2019-05-02T05:24:37.573Z,24.50
2019-05-02T05:27:03.230Z,24.50
2019-05-02T05:29:31.690Z,24.63
2019-05-02T05:32:05.293Z,26.43
2019-05-02T05:34:32.661Z,26.23
2019-05-02T05:37:03.558Z,26.90
2019-05-02T05:39:31.086Z,28.10
2019-05-02T05:41:59.847Z,26.67
2019-05-02T05:44:32.501Z,27.73
2019-05-02T05:46:58.520Z,27.70
2019-05-02T05:49:28.252Z,27.57
2019-05-02T05:52:02.064Z,28.70
2019-05-02T05:54:33.176Z,28.80
2019-05-02T05:56:57.510Z,28.27
2019-05-02T05:59:28.122Z,29.43
2019-05-02T06:01:57.905Z,28.17
2019-05-02T06:04:31.121Z,29.70
2019-05-02T06:06:59.435Z,30.13
2019-05-02T06:09:31.249Z,28.02
2019-05-02T06:11:57.321Z,30.05
2019-05-02T06:14:26.352Z,29.98
2019-05-02T06:16:54.970Z,31.42
2019-05-02T06:19:23.627Z,29.50
2019-05-02T06:21:52.158Z,31.80
2019-05-02T06:24:20.644Z,32.55
2019-05-02T06:26:49.736Z,31.97
2019-05-02T06:29:20.951Z,32.60
2019-05-02T06:31:50.863Z,31.80
2019-05-02T06:34:19.351Z,32.70
2019-05-02T06:36:47.832Z,34.08
2019-05-02T06:39:16.298Z,32.70
2019-05-02T06:41:44.783Z,31.35
2019-05-02T06:44:13.289Z,30.68
2019-05-02T06:46:41.936Z,32.23
2019-05-02T06:49:10.494Z,33.33
2019-05-02T06:51:39.059Z,32.73
2019-05-02T06:54:07.547Z,32.20
2019-05-02T06:56:36.386Z,32.98
2019-05-02T06:59:05.134Z,31.00
2019-05-02T07:01:34.109Z,31.62
2019-05-02T07:04:04.308Z,30.30
2019-05-02T07:06:42.164Z,32.35
2019-05-02T07:09:04.442Z,31.62
2019-05-02T07:11:38.195Z,31.00
2019-05-02T07:14:12.938Z,31.15
2019-05-02T07:16:38.553Z,30.55
2019-05-02T07:19:27.525Z,32.63
2019-05-02T07:21:58.696Z,30.97
2019-05-02T07:24:30.735Z,31.25
2019-05-02T07:26:56.804Z,30.88
2019-05-02T07:29:25.877Z,30.05
2019-05-02T07:31:54.370Z,33.05
2019-05-02T07:34:23.231Z,32.00
2019-05-02T07:36:51.698Z,32.20
2019-05-02T07:39:20.625Z,32.75
2019-05-02T07:41:49.093Z,33.63
2019-05-02T07:44:17.569Z,31.10
2019-05-02T07:46:51.901Z,32.83
2019-05-02T07:49:16.269Z,36.35
2019-05-02T07:51:44.890Z,35.13
2019-05-02T07:54:13.437Z,37.55
2019-05-02T07:56:41.956Z,35.75
2019-05-02T07:59:10.477Z,36.73
2019-05-02T08:01:38.982Z,38.42
2019-05-02T08:04:10.974Z,38.88
2019-05-02T08:06:40.122Z,38.88
2019-05-02T08:09:09.782Z,37.83
2019-05-02T08:11:38.592Z,36.40
2019-05-02T08:14:07.553Z,38.20
2019-05-02T08:16:36.024Z,37.80
2019-05-02T08:19:05.458Z,36.73
2019-05-02T08:21:41.199Z,34.67
2019-05-02T08:24:10.782Z,35.47
2019-05-02T08:26:43.618Z,33.80
2019-05-02T08:29:12.177Z,34.92
2019-05-02T08:31:40.653Z,33.92
2019-05-02T08:34:14.671Z,34.05
2019-05-02T08:36:39.437Z,33.85
2019-05-02T08:39:07.990Z,33.40
2019-05-02T08:41:36.486Z,31.70
2019-05-02T08:44:05.034Z,33.70
2019-05-02T08:46:33.528Z,30.07
2019-05-02T08:49:02.262Z,28.60
2019-05-02T08:51:30.750Z,29.48
2019-05-02T08:53:59.238Z,28.67
2019-05-02T08:56:27.703Z,30.62
2019-05-02T08:58:56.205Z,30.30
2019-05-02T09:01:34.597Z,28.73
2019-05-02T09:03:56.652Z,29.07
2019-05-02T09:06:25.093Z,29.65
2019-05-02T09:08:53.567Z,30.10
2019-05-02T09:11:22.053Z,30.77
2019-05-02T09:13:52.467Z,29.98
2019-05-02T09:16:23.637Z,28.90
2019-05-02T09:18:53.950Z,30.70
2019-05-02T09:21:21.953Z,30.32
2019-05-02T09:23:51.764Z,31.62
2019-05-02T09:26:33.291Z,30.85
2019-05-02T09:28:51.671Z,29.63
2019-05-02T09:31:22.527Z,30.02
2019-05-02T09:33:52.048Z,31.25
2019-05-02T09:36:22.746Z,30.65
2019-05-02T09:38:55.971Z,30.15
2019-05-02T09:41:22.233Z,29.40
2019-05-02T09:43:52.360Z,31.15
2019-05-02T09:46:21.749Z,30.27
2019-05-02T09:48:51.952Z,30.43
2019-05-02T09:51:21.606Z,29.65
2019-05-02T09:53:52.383Z,32.23
2019-05-02T09:56:21.966Z,29.27
2019-05-02T09:58:55.275Z,29.87
2019-05-02T10:01:22.910Z,29.72
2019-05-02T10:03:51.936Z,30.95
2019-05-02T10:06:22.967Z,29.75
2019-05-02T10:08:52.007Z,31.10
2019-05-02T10:11:22.508Z,30.70
2019-05-02T10:13:51.888Z,30.02
2019-05-02T10:16:23.580Z,33.15
2019-05-02T10:18:52.337Z,32.30
2019-05-02T10:21:22.866Z,34.48
2019-05-02T10:23:58.906Z,31.15
2019-05-02T10:26:24.557Z,31.87
2019-05-02T10:28:53.316Z,32.42
2019-05-02T10:31:22.172Z,32.83
2019-05-02T10:33:52.882Z,32.55
2019-05-02T10:36:24.002Z,33.78
2019-05-02T10:38:54.895Z,33.90
2019-05-02T10:41:22.502Z,34.63
2019-05-02T10:43:55.383Z,34.25
2019-05-02T10:46:27.856Z,35.33
2019-05-02T10:48:57.802Z,34.92
2019-05-02T10:51:27.993Z,38.65
2019-05-02T10:53:56.817Z,38.65
2019-05-02T10:56:25.489Z,40.03
2019-05-02T10:58:53.965Z,39.92
2019-05-02T11:01:23.796Z,40.67
2019-05-02T11:03:54.230Z,38.10
2019-05-02T11:06:22.701Z,40.40
2019-05-02T11:08:52.483Z,39.50
2019-05-02T11:11:22.224Z,41.67
2019-05-02T11:14:00.708Z,40.80
2019-05-02T11:16:29.805Z,41.85
2019-05-02T11:19:02.642Z,42.75
2019-05-02T11:21:32.197Z,45.35
2019-05-02T11:24:02.438Z,36.50
2019-05-02T11:26:32.793Z,43.98
2019-05-02T11:29:02.965Z,42.60
2019-05-02T11:31:34.451Z,46.43
2019-05-02T11:34:13.411Z,46.30
2019-05-02T11:36:42.153Z,43.23
2019-05-02T11:39:20.916Z,44.60
2019-05-02T11:41:42.263Z,43.50
2019-05-02T11:44:12.123Z,44.20
2019-05-02T11:46:45.002Z,42.17
2019-05-02T11:49:12.200Z,41.77
2019-05-02T11:51:42.196Z,40.50
2019-05-02T11:54:12.735Z,40.48
2019-05-02T11:56:48.636Z,40.80
2019-05-02T11:59:14.736Z,41.00
2019-05-02T12:01:56.944Z,39.10
2019-05-02T12:04:16.862Z,40.03
2019-05-02T12:06:45.051Z,37.20
2019-05-02T12:09:15.191Z,37.13
2019-05-02T12:11:47.511Z,36.88
2019-05-02T12:14:16.058Z,37.85
2019-05-02T12:16:48.699Z,35.40
2019-05-02T12:19:17.202Z,34.13
2019-05-02T12:21:48.749Z,33.95
2019-05-02T12:24:17.231Z,33.30
2019-05-02T12:26:46.644Z,31.85
2019-05-02T12:29:15.369Z,35.88
2019-05-02T12:31:47.244Z,36.68
2019-05-02T12:34:14.388Z,38.55
2019-05-02T12:36:42.910Z,37.42
2019-05-02T12:39:12.610Z,39.33
2019-05-02T12:41:42.299Z,39.53
2019-05-02T12:44:11.722Z,38.73
2019-05-02T12:46:42.158Z,38.98
2019-05-02T12:49:22.588Z,38.30
2019-05-02T12:51:42.794Z,38.65
2019-05-02T12:54:12.384Z,41.92
2019-05-02T12:56:41.837Z,40.23
2019-05-02T12:59:11.824Z,40.48
2019-05-02T13:01:42.174Z,39.55
2019-05-02T13:04:12.859Z,41.20
2019-05-02T13:06:42.164Z,38.30
2019-05-02T13:09:13.108Z,38.40
2019-05-02T13:11:49.326Z,37.85
2019-05-02T13:14:19.925Z,37.27
2019-05-02T13:16:53.608Z,38.43
2019-05-02T13:19:22.346Z,36.53
2019-05-02T13:22:02.169Z,29.20
2019-05-02T13:24:32.761Z,28.33
2019-05-02T13:27:04.263Z,24.97
2019-05-02T13:29:32.285Z,24.97
2019-05-02T13:32:19.526Z,24.80
2019-05-02T13:35:04.623Z,23.93
2019-05-02T13:37:33.473Z,20.83
2019-05-02T13:40:12.342Z,20.77
2019-05-02T13:42:41.820Z,19.23
2019-05-02T13:45:28.459Z,18.90
2019-05-02T13:47:56.938Z,16.43
2019-05-02T13:50:25.419Z,15.63
2019-05-02T13:52:57.907Z,14.27
2019-05-02T13:55:25.759Z,13.23
2019-05-02T13:57:54.245Z,13.67
2019-05-02T14:00:24.832Z,13.13
2019-05-02T14:02:53.823Z,10.57
2019-05-02T14:05:22.464Z,9.63
2019-05-02T14:08:01.846Z,9.53
2019-05-02T14:10:39.519Z,8.93
2019-05-02T14:13:04.831Z,8.67
2019-05-02T14:15:39.373Z,9.03
2019-05-02T14:18:07.865Z,9.07
2019-05-02T14:20:40.255Z,9.70
2019-05-02T14:23:14.808Z,7.97
2019-05-02T14:25:54.582Z,8.90
2019-05-02T14:28:32.293Z,8.27
2019-05-02T14:31:02.540Z,8.40
2019-05-02T14:33:33.108Z,10.00
2019-05-02T14:36:02.124Z,8.87
2019-05-02T14:38:32.126Z,10.57
2019-05-02T14:41:08.235Z,10.10
2019-05-02T14:43:53.767Z,10.48
2019-05-02T14:46:28.948Z,9.83
2019-05-02T14:48:55.997Z,10.33
2019-05-02T14:51:27.732Z,10.47
2019-05-02T14:53:57.213Z,10.65
2019-05-02T14:56:29.777Z,10.48
2019-05-02T14:58:58.351Z,10.38
2019-05-02T15:01:27.078Z,11.28
2019-05-02T15:03:58.276Z,11.68
2019-05-02T15:06:25.783Z,10.65
2019-05-02T15:08:54.345Z,12.15
2019-05-02T15:11:30.436Z,12.93
2019-05-02T15:13:53.186Z,13.65
2019-05-02T15:16:24.969Z,13.95
2019-05-02T15:18:53.261Z,13.90
2019-05-02T15:21:22.806Z,15.58
2019-05-02T15:23:54.360Z,15.43
2019-05-02T15:26:26.206Z,15.03
2019-05-02T15:28:52.353Z,15.78
2019-05-02T15:31:33.764Z,14.77
2019-05-02T15:34:06.420Z,15.38
2019-05-02T15:36:37.138Z,16.23
2019-05-02T15:41:39.975Z,16.40
2019-05-02T15:44:08.793Z,16.17
2019-05-02T15:46:37.278Z,16.42
2019-05-02T15:49:05.901Z,17.35
2019-05-02T15:51:38.042Z,17.10
2019-05-02T15:54:08.884Z,17.13
2019-05-02T15:57:00.453Z,16.97
2019-05-02T15:59:37.448Z,16.52
2019-05-02T16:02:08.299Z,16.60
2019-05-02T16:04:38.423Z,17.05
2019-05-02T16:07:08.540Z,16.77
2019-05-02T16:09:37.244Z,19.00
2019-05-02T16:12:05.978Z,19.30
2019-05-02T16:14:36.137Z,18.23
2019-05-02T16:17:05.169Z,19.20
2019-05-02T16:19:35.320Z,19.25
2019-05-02T16:22:12.194Z,17.95
2019-05-02T16:24:43.985Z,18.30
2019-05-02T16:27:16.562Z,16.17
2019-05-02T16:29:49.161Z,17.13
2019-05-02T16:32:35.916Z,16.02
2019-05-02T16:35:12.387Z,16.93
2019-05-02T16:37:36.930Z,15.98
2019-05-02T16:40:07.793Z,14.47
2019-05-02T16:42:38.247Z,14.60
2019-05-02T16:45:09.188Z,14.23
2019-05-02T16:47:37.741Z,12.95
2019-05-02T16:50:07.861Z,12.15
2019-05-02T16:52:38.265Z,10.82
2019-05-02T16:55:08.137Z,7.85
2019-05-02T16:57:36.890Z,6.35
2019-05-02T17:00:12.328Z,5.87
2019-05-02T17:02:43.561Z,6.22
2019-05-02T17:05:12.192Z,6.65
2019-05-02T17:07:58.708Z,6.23
2019-05-02T17:10:32.180Z,6.63
2019-05-02T17:13:02.758Z,7.13
2019-05-02T17:15:35.836Z,5.50
2019-05-02T17:18:12.721Z,4.87
2019-05-02T17:20:37.856Z,4.75
2019-05-02T17:23:09.556Z,4.40
2019-05-02T17:25:38.483Z,4.30
2019-05-02T17:28:10.560Z,4.60
2019-05-02T17:30:43.084Z,3.57
2019-05-02T17:33:16.383Z,4.63
2019-05-02T17:35:52.283Z,4.87
2019-05-02T17:38:25.072Z,5.17
2019-05-02T17:40:54.499Z,4.50
2019-05-02T17:43:29.901Z,4.63
2019-05-02T17:46:04.576Z,4.77
2019-05-02T17:48:34.754Z,4.13
2019-05-02T17:51:09.543Z,4.77
2019-05-02T17:53:41.517Z,4.30
2019-05-02T17:56:14.579Z,4.50
2019-05-02T17:58:39.820Z,4.10
2019-05-02T18:01:10.307Z,3.63
2019-05-02T18:03:38.896Z,3.73
2019-05-02T18:06:12.077Z,3.20
2019-05-02T18:08:37.645Z,2.90
2019-05-02T18:11:06.115Z,3.33
2019-05-02T18:13:35.453Z,3.50
2019-05-02T18:16:07.702Z,3.97
2019-05-02T18:18:37.470Z,3.73
2019-05-02T18:21:05.989Z,3.10
2019-05-02T18:23:34.443Z,3.53
2019-05-02T18:26:06.228Z,3.03
2019-05-02T18:28:33.143Z,3.10
2019-05-02T18:31:05.701Z,3.60
2019-05-02T18:33:35.961Z,3.27
2019-05-02T18:36:02.482Z,3.77
2019-05-02T18:38:32.443Z,3.10
2019-05-02T18:41:05.840Z,3.80
2019-05-02T18:43:31.616Z,3.63
2019-05-02T18:46:05.986Z,3.10
2019-05-02T18:48:31.819Z,4.30
2019-05-02T18:51:01.561Z,3.07
2019-05-02T18:53:32.594Z,3.60
2019-05-02T18:56:01.595Z,3.53
2019-05-02T18:58:31.970Z,3.43
2019-05-02T19:01:00.735Z,3.60
2019-05-02T19:03:29.330Z,3.77
2019-05-02T19:05:58.510Z,3.67
2019-05-02T19:08:31.452Z,3.73
2019-05-02T19:11:07.592Z,3.30
2019-05-02T19:13:30.720Z,3.30
2019-05-02T19:15:58.709Z,3.17
2019-05-02T19:18:27.196Z,3.40
2019-05-02T19:20:58.757Z,3.37
2019-05-02T19:23:27.610Z,3.87
2019-05-02T19:25:57.136Z,3.03
2019-05-02T19:28:34.699Z,3.47
2019-05-02T19:31:05.160Z,2.70
2019-05-02T19:33:31.844Z,3.10
2019-05-02T19:36:02.672Z,3.20
2019-05-02T19:38:32.343Z,3.40
2019-05-02T19:41:05.408Z,3.27
2019-05-02T19:43:35.005Z,2.93
2019-05-02T19:46:03.253Z,3.70
2019-05-02T19:48:32.882Z,3.10
2019-05-02T19:51:02.561Z,3.13
2019-05-02T19:53:32.434Z,3.07
2019-05-02T19:56:03.058Z,3.20
2019-05-02T19:58:36.777Z,3.20
2019-05-02T20:01:04.011Z,3.37
2019-05-02T20:03:32.705Z,2.97
2019-05-02T20:06:05.924Z,3.00
2019-05-02T20:08:32.772Z,3.00
2019-05-02T20:11:02.227Z,3.03
2019-05-02T20:13:32.599Z,3.20
2019-05-02T20:16:18.325Z,3.00
2019-05-02T20:18:47.283Z,3.03
2019-05-02T20:21:27.579Z,3.20
2019-05-02T20:23:54.175Z,3.00
2019-05-02T20:26:22.840Z,3.30
2019-05-02T20:28:52.788Z,3.10
2019-05-02T20:31:24.196Z,3.70
2019-05-02T20:33:52.656Z,3.07
2019-05-02T20:36:22.813Z,3.12
2019-05-02T20:38:52.603Z,3.53
2019-05-02T20:41:22.397Z,3.33
2019-05-02T20:43:51.820Z,3.50
2019-05-02T20:46:22.505Z,3.20
2019-05-02T20:48:52.548Z,3.50
2019-05-02T20:51:22.801Z,3.33
2019-05-02T20:53:52.597Z,3.50
2019-05-02T20:56:23.022Z,2.90
2019-05-02T20:58:52.654Z,3.60
2019-05-02T21:01:21.798Z,3.60
2019-05-02T21:03:52.249Z,3.17
2019-05-02T21:06:40.922Z,3.60
2019-05-02T21:09:15.338Z,3.57
2019-05-02T21:11:45.528Z,3.40
2019-05-02T21:14:14.100Z,3.80
2019-05-02T21:16:42.687Z,3.40
2019-05-02T21:19:12.381Z,3.83
2019-05-02T21:21:42.644Z,3.50
2019-05-02T21:24:11.398Z,4.07
2019-05-02T21:26:41.978Z,3.87
2019-05-02T21:29:12.002Z,3.70
2019-05-02T21:31:42.400Z,3.87
2019-05-02T21:34:11.698Z,3.57
2019-05-02T21:36:42.509Z,3.80
2019-05-02T21:39:12.540Z,4.30
2019-05-02T21:41:42.326Z,4.50
2019-05-02T21:44:13.148Z,3.87
2019-05-02T21:46:42.341Z,4.23
2019-05-02T21:49:12.061Z,3.58
2019-05-02T21:51:42.650Z,4.10
2019-05-02T21:54:22.680Z,3.83
2019-05-02T21:56:53.143Z,3.97
2019-05-02T21:59:22.515Z,3.90
2019-05-02T22:01:53.299Z,3.50
2019-05-02T22:04:22.402Z,3.67
2019-05-02T22:06:52.220Z,3.57
2019-05-02T22:09:23.180Z,4.10
2019-05-02T22:11:52.316Z,3.67
2019-05-02T22:14:22.323Z,3.47
2019-05-02T22:16:53.044Z,3.20
2019-05-02T22:19:21.564Z,3.60
2019-05-02T22:21:52.261Z,4.03
2019-05-02T22:24:20.453Z,4.17
2019-05-02T22:26:49.034Z,3.73
2019-05-02T22:29:17.773Z,4.03
2019-05-02T22:31:46.617Z,3.90
2019-05-02T22:34:15.503Z,4.30
2019-05-02T22:36:44.171Z,4.90
2019-05-02T22:39:31.718Z,5.03
2019-05-02T22:42:01.909Z,5.63
2019-05-02T22:44:32.481Z,6.90
2019-05-02T22:47:01.109Z,6.87
2019-05-02T22:49:31.683Z,7.47
2019-05-02T22:51:59.918Z,8.07
2019-05-02T22:54:33.291Z,7.40
2019-05-02T22:56:58.902Z,7.63
2019-05-02T22:59:28.169Z,6.07
2019-05-02T23:01:58.092Z,7.03
2019-05-02T23:04:26.664Z,6.77
2019-05-02T23:06:55.265Z,5.87
2019-05-02T23:09:23.903Z,6.13
2019-05-02T23:11:52.557Z,7.00
2019-05-02T23:14:22.220Z,6.10
2019-05-02T23:16:52.850Z,6.63
2019-05-02T23:19:22.894Z,6.50
2019-05-02T23:21:52.699Z,6.60
2019-05-02T23:24:36.356Z,6.25
2019-05-02T23:27:00.994Z,6.13
2019-05-02T23:29:29.567Z,5.77
2019-05-02T23:31:58.226Z,6.57
2019-05-02T23:34:26.798Z,6.03
2019-05-02T23:36:55.370Z,6.00
2019-05-02T23:39:23.978Z,6.43
2019-05-02T23:41:52.582Z,6.03
2019-05-02T23:44:22.714Z,6.25
2019-05-02T23:46:51.654Z,6.13
2019-05-02T23:49:21.994Z,7.03
2019-05-02T23:51:50.566Z,5.60
2019-05-02T23:54:19.232Z,5.50
2019-05-02T23:56:47.799Z,4.90
2019-05-02T23:59:16.470Z,5.27
